Time;durP1;ratioP1;P1;durP2;ratioP2;P2;SDS_P1;SDS_P2;PMS_P1;PMS_P2;Temp;Humidity;BMP_temperature;BMP_pressure;BME280_temperature;BME280_humidity;BME280_pressure;Samples;Min_cycle;Max_cycle;Signal;HPM_P1;HPM_P2
2021/01/01 00:00:41;;;;;;;75.15;48.10;;;;;;;7.67;60.39;94142.84;4193476;28;20052;-70
2021/01/01 00:02:43;;;;;;;74.53;49.40;;;;;;;7.65;60.99;94144.78;4195108;28;20059;-69
2021/01/01 00:04:44;;;;;;;78.53;48.92;;;;;;;7.66;60.48;94149.03;4193920;28;20056;-69
2021/01/01 00:06:47;;;;;;;81.00;50.88;;;;;;;7.72;61.16;94152.78;4180642;28;20339;-71
2021/01/01 00:08:48;;;;;;;108.32;66.35;;;;;;;7.80;61.02;94155.44;4193982;28;20144;-70
2021/01/01 00:10:52;;;;;;;86.97;52.63;;;;;;;7.84;61.05;94154.16;4194648;28;20048;-69
2021/01/01 00:12:53;;;;;;;84.93;50.42;;;;;;;7.81;60.73;94159.72;4193026;28;20048;-69
2021/01/01 00:14:58;;;;;;;82.88;49.28;;;;;;;7.76;60.96;94167.97;4209847;28;20093;-70
2021/01/01 00:17:00;;;;;;;87.43;53.35;;;;;;;7.69;61.36;94151.31;4191825;28;20056;-69
2021/01/01 00:19:01;;;;;;;81.40;50.58;;;;;;;7.63;61.72;94162.38;4193244;28;20053;-70
2021/01/01 00:21:03;;;;;;;81.28;50.60;;;;;;;7.61;61.47;94159.09;4194124;28;20053;-69
2021/01/01 00:23:04;;;;;;;90.00;53.10;;;;;;;7.58;61.52;94169.84;4193002;28;20048;-70
2021/01/01 00:25:06;;;;;;;87.82;53.80;;;;;;;7.56;61.59;94169.19;4194129;28;20127;-69
2021/01/01 00:27:08;;;;;;;87.93;53.67;;;;;;;7.42;61.74;94161.91;4190951;28;20052;-70
2021/01/01 00:29:09;;;;;;;85.45;52.83;;;;;;;7.42;62.12;94161.91;4188588;28;20083;-69
2021/01/01 00:31:21;;;;;;;88.50;55.33;;;;;;;7.44;62.10;94170.38;4206578;28;20079;-70
2021/01/01 00:33:23;;;;;;;86.25;53.67;;;;;;;7.41;62.86;94181.94;4194491;28;20111;-71
2021/01/01 00:35:24;;;;;;;89.47;55.63;;;;;;;7.44;62.26;94175.59;4174454;28;20135;-70
2021/01/01 00:37:26;;;;;;;98.68;57.17;;;;;;;7.39;62.40;94178.66;4193041;28;20050;-69
2021/01/01 00:39:27;;;;;;;87.72;56.22;;;;;;;7.35;62.77;94185.97;4193140;28;20421;-70
2021/01/01 00:41:30;;;;;;;85.20;55.97;;;;;;;7.34;62.37;94191.34;4193980;28;20048;-70
2021/01/01 00:43:33;;;;;;;93.00;55.37;;;;;;;7.31;62.70;94184.66;4191406;28;20104;-70
2021/01/01 00:45:34;;;;;;;92.70;57.17;;;;;;;7.28;62.90;94194.56;4194621;28;20050;-70
2021/01/01 00:47:35;;;;;;;91.47;56.58;;;;;;;7.26;63.01;94186.88;4192818;28;20049;-70
2021/01/01 00:49:37;;;;;;;93.90;57.15;;;;;;;7.27;62.99;94193.75;4191484;28;20055;-68
2021/01/01 00:51:39;;;;;;;96.05;58.03;;;;;;;7.28;62.89;94200.56;4178325;28;20056;-72
2021/01/01 00:53:40;;;;;;;96.30;58.78;;;;;;;7.20;63.21;94194.47;4194243;28;20129;-68
2021/01/01 00:55:42;;;;;;;92.43;56.17;;;;;;;7.13;63.41;94192.47;4193616;28;20110;-70
2021/01/01 00:57:43;;;;;;;89.75;55.03;;;;;;;7.14;63.35;94193.28;4192035;28;20426;-69
2021/01/01 00:59:44;;;;;;;86.43;56.05;;;;;;;7.15;63.53;94190.53;4191943;28;20056;-72
2021/01/01 01:01:45;;;;;;;95.72;57.15;;;;;;;7.16;63.58;94199.16;4192419;28;20458;-70
2021/01/01 01:03:46;;;;;;;94.18;56.00;;;;;;;7.12;63.71;94198.66;4193612;28;20608;-70
2021/01/01 01:05:48;;;;;;;91.75;55.90;;;;;;;7.07;63.62;94200.06;4193323;28;20051;-69
2021/01/01 01:07:49;;;;;;;87.30;53.47;;;;;;;7.06;63.71;94204.47;4192566;28;20048;-69
2021/01/01 01:09:51;;;;;;;83.43;51.97;;;;;;;7.09;63.94;94200.75;4192582;28;20056;-81
2021/01/01 01:11:54;;;;;;;87.50;53.80;;;;;;;7.11;63.57;94199.63;4195405;28;20102;-80
2021/01/01 01:13:57;;;;;;;83.43;52.00;;;;;;;7.12;63.58;94196.06;4193413;28;20040;-80
2021/01/01 01:15:59;;;;;;;79.68;51.95;;;;;;;7.09;63.98;94201.56;4193626;28;20058;-82
2021/01/01 01:18:00;;;;;;;79.47;50.95;;;;;;;7.06;63.56;94206.28;4194090;28;20056;-82
2021/01/01 01:20:01;;;;;;;75.05;47.25;;;;;;;6.97;64.00;94213.19;4194480;28;20549;-82
2021/01/01 01:22:03;;;;;;;71.97;47.45;;;;;;;6.95;64.02;94213.34;4192702;28;20131;-80
2021/01/01 01:24:04;;;;;;;75.82;47.13;;;;;;;6.97;64.04;94214.00;4184349;28;20072;-81
2021/01/01 01:26:06;;;;;;;80.88;47.92;;;;;;;6.95;64.58;94215.94;4197163;28;20286;-81
2021/01/01 01:28:08;;;;;;;77.45;48.75;;;;;;;6.53;65.42;94219.09;4192621;28;20067;-80
2021/01/01 01:30:10;;;;;;;82.85;48.60;;;;;;;6.54;65.94;94219.94;4188236;28;20049;-80
2021/01/01 01:32:11;;;;;;;77.28;47.50;;;;;;;6.57;65.54;94217.81;4188032;28;20049;-82
2021/01/01 01:34:12;;;;;;;73.50;45.70;;;;;;;6.59;65.49;94217.69;4193755;28;20049;-81
2021/01/01 01:36:13;;;;;;;68.85;43.17;;;;;;;6.71;65.08;94215.69;4190374;28;20083;-81
2021/01/01 01:38:15;;;;;;;64.35;40.65;;;;;;;6.76;64.58;94213.47;4195307;28;20392;-79
2021/01/01 01:40:16;;;;;;;65.25;40.95;;;;;;;6.79;64.71;94213.16;4184555;28;20584;-79
2021/01/01 01:42:17;;;;;;;62.85;37.58;;;;;;;6.78;65.01;94208.13;4190317;28;20048;-78
2021/01/01 01:44:19;;;;;;;58.63;36.03;;;;;;;6.65;64.98;94222.31;4194245;28;20059;-81
2021/01/01 01:46:20;;;;;;;54.40;33.10;;;;;;;6.66;65.16;94226.53;4192086;28;20127;-78
2021/01/01 01:48:36;;;;;;;53.50;34.72;;;;;;;6.64;65.30;94219.84;4180500;28;20463;-80
2021/01/01 01:50:39;;;;;;;53.33;34.95;;;;;;;6.63;65.71;94219.03;4187422;28;20992;-79
2021/01/01 01:52:41;;;;;;;50.97;33.30;;;;;;;6.63;65.31;94228.63;4186539;28;20045;-81
2021/01/01 01:54:43;;;;;;;51.85;30.55;;;;;;;6.67;65.56;94233.41;4192463;28;20446;-80
2021/01/01 01:56:45;;;;;;;49.45;31.05;;;;;;;6.71;65.27;94226.94;4190347;28;20688;-81
2021/01/01 01:58:46;;;;;;;47.88;30.88;;;;;;;6.72;65.30;94227.75;4190622;28;20109;-81
2021/01/01 02:02:52;;;;;;;46.45;29.45;;;;;;;6.77;65.41;94233.31;4195600;28;20056;-79
2021/01/01 02:04:53;;;;;;;48.77;30.70;;;;;;;6.67;65.28;94235.19;4210870;28;20048;-81
2021/01/01 02:06:55;;;;;;;45.42;29.67;;;;;;;6.68;65.60;94244.63;4194262;28;20048;-80
2021/01/01 02:08:56;;;;;;;53.05;31.20;;;;;;;6.67;65.58;94233.41;4194166;28;20499;-81
2021/01/01 02:10:58;;;;;;;44.58;30.25;;;;;;;6.72;64.97;94235.56;4194555;28;20467;-82
2021/01/01 02:13:00;;;;;;;54.20;30.70;;;;;;;6.75;65.49;94232.66;4194617;28;20048;-81
2021/01/01 02:15:02;;;;;;;45.45;29.77;;;;;;;6.79;65.16;94236.59;4175915;28;20051;-80
2021/01/01 02:17:03;;;;;;;45.25;29.98;;;;;;;6.87;64.68;94226.28;4193538;28;20070;-80
2021/01/01 02:19:04;;;;;;;50.67;30.77;;;;;;;6.82;64.97;94235.47;4195105;28;20044;-81
2021/01/01 02:21:07;;;;;;;52.00;33.22;;;;;;;6.74;65.04;94233.63;4196911;28;20045;-80
2021/01/01 02:23:08;;;;;;;53.70;33.72;;;;;;;6.72;65.00;94233.75;4190421;28;20065;-79
2021/01/01 02:25:10;;;;;;;53.50;34.78;;;;;;;6.75;65.48;94232.66;4202836;28;20173;-80
2021/01/01 02:27:11;;;;;;;55.45;33.17;;;;;;;6.77;65.50;94241.13;4213898;28;20612;-81
2021/01/01 02:29:13;;;;;;;55.67;34.53;;;;;;;6.78;65.01;94239.38;4177869;28;20419;-81
2021/01/01 02:31:45;;;;;;;57.20;37.08;;;;;;;6.83;65.37;94243.16;4195409;28;20056;-80
2021/01/01 02:33:46;;;;;;;87.82;54.20;;;;;;;6.54;66.11;94246.75;4180182;28;20781;-83
2021/01/01 02:35:47;;;;;;;59.17;39.28;;;;;;;6.43;66.64;94253.94;4194012;28;20068;-81
2021/01/01 02:37:49;;;;;;;58.30;36.35;;;;;;;6.39;66.64;94248.22;4191509;28;20048;-80
2021/01/01 02:39:50;;;;;;;60.63;37.13;;;;;;;6.48;66.71;94254.34;4194257;28;20064;-83
2021/01/01 02:41:51;;;;;;;59.08;37.30;;;;;;;6.55;66.45;94251.00;4183912;28;20407;-82
2021/01/01 02:43:53;;;;;;;59.35;36.97;;;;;;;6.59;66.09;94248.91;4186445;28;20053;-81
2021/01/01 02:45:54;;;;;;;59.58;36.20;;;;;;;6.67;66.05;94256.00;4188091;28;20045;-82
2021/01/01 02:47:55;;;;;;;54.28;35.78;;;;;;;6.70;65.91;94253.09;4193876;28;20146;-80
2021/01/01 02:49:57;;;;;;;56.20;33.85;;;;;;;6.59;65.83;94250.72;4194679;28;20543;-82
2021/01/01 02:52:00;;;;;;;55.78;36.78;;;;;;;6.29;66.79;94260.44;4194977;28;20506;-80
2021/01/01 02:54:01;;;;;;;59.05;36.42;;;;;;;6.28;66.92;94264.00;4201019;28;20048;-82
2021/01/01 02:56:02;;;;;;;55.20;36.33;;;;;;;6.26;67.08;94266.75;4196611;28;20115;-80
2021/01/01 02:58:04;;;;;;;57.10;36.33;;;;;;;6.28;67.29;94264.00;4198391;28;20052;-82
2021/01/01 03:00:06;;;;;;;56.35;35.28;;;;;;;6.34;67.17;94260.81;4197626;28;20554;-81
2021/01/01 03:02:08;;;;;;;57.78;36.80;;;;;;;6.40;66.89;94270.66;4202510;28;20056;-81
2021/01/01 03:04:09;;;;;;;58.42;36.30;;;;;;;6.46;66.66;94264.06;4196849;28;20471;-81
2021/01/01 03:06:10;;;;;;;52.42;32.88;;;;;;;6.46;66.04;94266.66;4196038;28;20485;-81
2021/01/01 03:08:12;;;;;;;74.82;42.63;;;;;;;6.25;66.48;94262.50;4196783;28;20063;-83
2021/01/01 03:10:13;;;;;;;60.55;36.15;;;;;;;6.20;67.60;94263.91;4193222;28;20527;-79
2021/01/01 03:12:14;;;;;;;61.40;34.78;;;;;;;6.23;67.10;94263.59;4200206;28;20052;-82
2021/01/01 03:14:16;;;;;;;53.92;33.47;;;;;;;6.22;66.63;94254.19;4195534;28;20059;-80
2021/01/01 03:16:17;;;;;;;54.78;33.50;;;;;;;6.15;67.21;94265.16;4181304;28;20479;-79
2021/01/01 03:18:19;;;;;;;55.63;32.65;;;;;;;6.19;66.97;94267.47;4193529;28;20053;-80
2021/01/01 03:20:20;;;;;;;53.83;32.42;;;;;;;6.22;66.92;94260.19;4195943;28;20139;-80
2021/01/01 03:22:21;;;;;;;53.90;33.38;;;;;;;6.21;66.97;94258.53;4211504;28;20098;-80
2021/01/01 03:24:22;;;;;;;38.72;25.20;;;;;;;6.11;66.46;94260.38;4197052;28;20040;-80
2021/01/01 03:26:23;;;;;;;46.83;26.63;;;;;;;6.13;66.74;94261.88;4196111;28;20055;-80
2021/01/01 03:28:25;;;;;;;41.75;27.23;;;;;;;6.22;66.51;94264.59;4192665;28;20091;-80
2021/01/01 03:30:26;;;;;;;37.42;23.25;;;;;;;6.32;65.98;94266.19;4195018;28;20079;-81
2021/01/01 03:32:27;;;;;;;38.60;23.95;;;;;;;6.35;65.94;94268.47;4195877;28;20062;-81
2021/01/01 03:34:28;;;;;;;38.75;23.83;;;;;;;6.41;65.91;94268.84;4195474;28;20055;-82
2021/01/01 03:36:30;;;;;;;39.88;23.98;;;;;;;6.47;65.62;94268.28;4194908;28;20045;-79
2021/01/01 03:38:32;;;;;;;37.50;24.58;;;;;;;6.47;65.66;94269.09;4185483;28;20044;-80
2021/01/01 03:40:34;;;;;;;41.08;26.75;;;;;;;6.53;65.11;94267.72;4194524;28;20138;-79
2021/01/01 03:42:35;;;;;;;40.75;25.48;;;;;;;6.55;65.35;94264.00;4211151;28;20066;-81
2021/01/01 03:44:36;;;;;;;42.75;25.35;;;;;;;6.54;65.21;94270.19;4189827;28;20072;-79
2021/01/01 03:46:38;;;;;;;40.92;26.02;;;;;;;6.51;65.32;94260.03;4195448;28;20125;-79
2021/01/01 03:48:39;;;;;;;40.97;25.30;;;;;;;6.49;65.68;94255.94;4196132;28;20067;-79
2021/01/01 03:50:40;;;;;;;45.47;29.30;;;;;;;6.45;65.90;94259.81;4194763;28;20356;-79
2021/01/01 03:52:41;;;;;;;62.58;36.53;;;;;;;6.47;65.77;94265.69;4211069;28;20742;-80
2021/01/01 03:54:42;;;;;;;66.32;43.15;;;;;;;6.47;65.75;94268.28;4194602;28;20047;-70
2021/01/01 03:56:44;;;;;;;77.50;46.22;;;;;;;6.48;65.37;94264.75;4191744;28;20044;-70
2021/01/01 03:58:45;;;;;;;71.38;44.53;;;;;;;6.43;66.04;94272.13;4192581;28;20141;-68
2021/01/01 04:00:46;;;;;;;73.95;46.08;;;;;;;6.40;65.37;94268.06;4193255;28;20040;-69
2021/01/01 04:02:47;;;;;;;79.82;44.13;;;;;;;6.40;66.10;94272.44;4186693;28;20053;-68
2021/01/01 04:04:48;;;;;;;72.03;45.03;;;;;;;6.42;65.86;94275.72;4193559;28;20383;-70
2021/01/01 04:06:50;;;;;;;72.47;43.35;;;;;;;6.45;65.39;94280.63;4193711;28;20063;-68
2021/01/01 04:08:51;;;;;;;74.80;43.90;;;;;;;6.46;65.44;94284.88;4192403;28;20052;-69
2021/01/01 04:10:52;;;;;;;72.80;43.33;;;;;;;6.46;65.71;94279.69;4194649;28;20094;-69
2021/01/01 04:12:54;;;;;;;68.32;43.03;;;;;;;6.47;65.38;94286.50;4193311;28;20075;-69
2021/01/01 04:14:55;;;;;;;67.78;42.10;;;;;;;6.45;65.77;94278.84;4193715;28;20048;-70
2021/01/01 04:16:56;;;;;;;70.55;42.72;;;;;;;6.45;65.56;94291.84;4193479;28;20064;-69
2021/01/01 04:18:58;;;;;;;74.57;45.60;;;;;;;6.25;65.72;94291.09;4194833;28;20388;-68
2021/01/01 04:20:59;;;;;;;76.15;46.45;;;;;;;5.83;67.60;94296.69;4191838;28;20055;-69
2021/01/01 04:23:00;;;;;;;84.20;47.88;;;;;;;5.53;68.61;94300.28;4193565;28;20235;-69
2021/01/01 04:25:02;;;;;;;73.43;45.08;;;;;;;5.07;69.71;94304.38;4193761;28;20056;-70
2021/01/01 04:27:04;;;;;;;80.38;48.25;;;;;;;5.10;70.52;94301.53;4192229;28;20110;-68
2021/01/01 04:29:05;;;;;;;71.68;42.70;;;;;;;5.24;69.43;94306.28;4187868;28;20515;-68
2021/01/01 04:31:07;;;;;;;72.45;44.22;;;;;;;5.45;69.28;94313.94;4187854;28;20214;-70
2021/01/01 04:33:08;;;;;;;70.20;41.63;;;;;;;5.53;68.77;94308.09;4180879;28;20444;-69
2021/01/01 04:35:09;;;;;;;71.35;41.55;;;;;;;5.64;68.24;94310.53;4193174;28;20102;-69
2021/01/01 04:37:11;;;;;;;73.53;42.45;;;;;;;5.74;67.39;94308.75;4191257;28;20048;-69
2021/01/01 04:39:12;;;;;;;74.40;43.55;;;;;;;5.82;67.15;94302.03;4190223;28;20040;-69
2021/01/01 04:41:14;;;;;;;69.93;42.75;;;;;;;5.84;67.35;94300.09;4188803;28;20545;-69
2021/01/01 04:43:15;;;;;;;62.33;41.17;;;;;;;5.87;67.44;94297.22;4192434;28;20078;-69
2021/01/01 04:45:16;;;;;;;65.68;40.92;;;;;;;5.89;66.48;94303.94;4193918;28;20101;-69
2021/01/01 04:47:20;;;;;;;65.15;39.63;;;;;;;5.89;66.55;94305.69;4192243;28;20319;-69
2021/01/01 04:49:22;;;;;;;68.95;40.42;;;;;;;5.91;67.14;94299.38;4191371;28;20523;-69
2021/01/01 04:51:23;;;;;;;71.00;40.30;;;;;;;5.99;66.97;94308.31;4187592;28;20049;-69
2021/01/01 04:53:24;;;;;;;65.90;40.50;;;;;;;6.03;67.05;94307.88;4182025;28;20048;-69
2021/01/01 04:55:26;;;;;;;62.45;39.78;;;;;;;6.07;66.63;94308.44;4176613;28;20056;-70
2021/01/01 04:57:28;;;;;;;65.28;41.25;;;;;;;6.10;66.72;94310.75;4191616;28;20088;-69
2021/01/01 04:59:29;;;;;;;65.03;40.38;;;;;;;6.12;66.76;94314.84;4193169;28;20056;-79
2021/01/01 05:01:30;;;;;;;67.38;40.97;;;;;;;5.84;67.74;94313.91;4193995;28;20052;-69
2021/01/01 05:03:32;;;;;;;66.53;40.53;;;;;;;5.70;67.87;94329.94;4191528;28;20078;-69
2021/01/01 05:05:33;;;;;;;62.72;39.70;;;;;;;5.44;68.58;94332.28;4175145;28;20053;-69
2021/01/01 05:07:34;;;;;;;64.20;39.25;;;;;;;5.18;69.47;94325.00;4180475;28;20463;-69
2021/01/01 05:09:38;;;;;;;59.55;37.33;;;;;;;5.17;69.62;94328.56;4187363;28;20059;-69
2021/01/01 05:11:40;;;;;;;71.97;40.08;;;;;;;5.27;69.76;94326.81;4191765;28;20098;-68
2021/01/01 05:14:01;;;;;;;67.18;40.63;;;;;;;5.37;69.11;94331.19;4193106;28;20051;-69
2021/01/01 05:16:17;;;;;;;68.90;40.72;;;;;;;5.45;69.08;94337.34;4191776;28;20190;-69
2021/01/01 05:18:26;;;;;;;59.67;37.92;;;;;;;5.54;68.88;94330.50;4174045;28;20075;-69
2021/01/01 05:20:27;;;;;;;61.55;37.22;;;;;;;5.56;68.07;94345.97;4195518;28;20052;-80
2021/01/01 05:22:32;;;;;;;59.97;36.95;;;;;;;5.61;68.53;94343.75;4203654;28;20465;-80
2021/01/01 05:24:42;;;;;;;63.90;37.13;;;;;;;5.58;67.63;94355.25;4200070;28;20047;-80
2021/01/01 05:26:50;;;;;;;55.50;36.83;;;;;;;5.54;67.96;94344.31;4173282;28;20072;-79
2021/01/01 05:28:52;;;;;;;61.53;37.75;;;;;;;5.43;68.20;94346.22;4193603;28;20071;-81
2021/01/01 05:30:54;;;;;;;53.13;32.60;;;;;;;5.18;68.74;94353.56;4192181;28;20052;-80
2021/01/01 05:32:55;;;;;;;56.72;34.55;;;;;;;4.95;69.65;94367.75;4193180;28;20044;-79
2021/01/01 05:34:58;;;;;;;58.22;35.38;;;;;;;4.71;70.40;94363.72;4192461;28;20044;-82
2021/01/01 05:36:59;;;;;;;63.22;35.35;;;;;;;4.74;70.42;94368.66;4194279;28;20071;-80
2021/01/01 05:39:04;;;;;;;54.15;29.90;;;;;;;4.79;69.51;94358.69;4194912;28;20054;-80
2021/01/01 05:41:06;;;;;;;46.60;27.90;;;;;;;4.85;69.59;94360.75;4192811;28;20561;-80
2021/01/01 05:43:23;;;;;;;45.92;29.27;;;;;;;4.93;69.19;94373.09;4191943;28;20123;-81
2021/01/01 05:45:26;;;;;;;53.45;30.90;;;;;;;5.08;68.80;94370.94;4193312;28;20059;-80
2021/01/01 05:47:27;;;;;;;53.97;32.60;;;;;;;5.20;68.56;94376.81;4194067;28;20165;-80
2021/01/01 05:49:40;;;;;;;51.78;32.70;;;;;;;5.25;67.67;94372.06;4191839;28;20045;-79
2021/01/01 05:51:41;;;;;;;48.22;27.90;;;;;;;5.25;67.33;94374.66;4187328;28;20040;-80
2021/01/01 05:53:42;;;;;;;48.78;29.48;;;;;;;5.31;67.47;94374.09;4195220;28;20102;-78
2021/01/01 05:55:45;;;;;;;50.63;31.90;;;;;;;5.40;67.08;94383.69;4199283;28;20116;-79
2021/01/01 05:57:47;;;;;;;52.25;32.55;;;;;;;5.47;67.01;94381.38;4213176;28;20102;-79
2021/01/01 05:59:48;;;;;;;52.83;34.72;;;;;;;5.45;66.78;94378.91;4197397;28;20041;-82
2021/01/01 06:01:55;;;;;;;57.72;35.38;;;;;;;5.50;66.48;94387.09;4195738;28;20041;-80
2021/01/01 06:03:56;;;;;;;59.03;34.42;;;;;;;5.49;66.94;94384.66;4196212;28;20536;-79
2021/01/01 06:05:58;;;;;;;58.15;34.13;;;;;;;5.52;67.04;94386.97;4197008;28;20554;-79
2021/01/01 06:08:00;;;;;;;64.07;37.97;;;;;;;5.52;67.60;94390.38;4196359;28;20052;-81
2021/01/01 06:10:06;;;;;;;63.83;36.30;;;;;;;5.57;67.25;94394.34;4192621;28;20102;-82
2021/01/01 06:12:12;;;;;;;54.47;33.97;;;;;;;5.57;67.10;94400.41;4186140;28;20068;-79
2021/01/01 06:14:15;;;;;;;64.35;40.45;;;;;;;5.57;66.38;94390.00;4175098;28;20128;-79
2021/01/01 06:16:20;;;;;;;83.55;51.22;;;;;;;5.60;66.76;94399.28;4193519;28;20048;-81
2021/01/01 06:18:28;;;;;;;88.20;54.55;;;;;;;5.61;65.72;94404.34;4192119;28;20052;-80
2021/01/01 06:20:31;;;;;;;69.28;42.85;;;;;;;5.64;66.22;94405.88;4181363;28;20049;-80
2021/01/01 06:22:33;;;;;;;66.18;38.03;;;;;;;5.68;65.83;94413.25;4186167;28;20056;-79
2021/01/01 06:24:42;;;;;;;58.72;35.25;;;;;;;5.69;66.15;94417.47;4192898;28;20463;-81
2021/01/01 06:26:43;;;;;;;51.30;33.35;;;;;;;5.69;66.05;94414.88;4210118;28;20437;-79
2021/01/01 06:28:46;;;;;;;51.78;31.67;;;;;;;5.79;66.03;94412.28;4180169;28;20048;-79
2021/01/01 06:30:47;;;;;;;51.95;30.60;;;;;;;5.88;64.93;94408.88;4198707;28;20388;-79
2021/01/01 06:32:48;;;;;;;54.72;31.02;;;;;;;5.99;64.90;94415.72;4199083;28;20566;-80
2021/01/01 06:34:51;;;;;;;53.78;31.45;;;;;;;6.07;64.44;94423.66;4198874;28;20053;-80
2021/01/01 06:36:52;;;;;;;50.20;30.35;;;;;;;6.27;63.95;94421.84;4212584;28;20151;-81
2021/01/01 06:38:53;;;;;;;56.30;34.53;;;;;;;6.40;63.68;94423.34;4210883;28;20050;-80
2021/01/01 06:40:55;;;;;;;54.47;33.88;;;;;;;6.49;63.55;94433.72;4197013;28;20050;-81
2021/01/01 06:43:06;;;;;;;55.75;32.03;;;;;;;6.54;63.44;94435.94;4195577;28;20063;-82
2021/01/01 06:45:39;;;;;;;48.38;30.23;;;;;;;6.62;63.12;94445.63;4196934;28;20306;-80
2021/01/01 06:47:40;;;;;;;50.75;31.70;;;;;;;6.69;62.78;94446.69;4181143;28;20131;-80
2021/01/01 06:49:41;;;;;;;51.20;31.35;;;;;;;6.65;63.35;94442.75;4197497;28;20051;-80
2021/01/01 06:51:42;;;;;;;53.22;32.38;;;;;;;6.57;63.26;94446.03;4195639;28;20052;-81
2021/01/01 06:53:44;;;;;;;52.33;32.80;;;;;;;6.53;63.30;94453.31;4195973;28;20215;-80
2021/01/01 06:55:47;;;;;;;50.05;31.75;;;;;;;6.50;63.77;94450.19;4196320;28;20131;-81
2021/01/01 06:57:49;;;;;;;54.53;32.13;;;;;;;6.51;64.00;94446.59;4203611;28;20052;-81
2021/01/01 06:59:52;;;;;;;53.72;31.33;;;;;;;6.56;63.64;94447.84;4185790;28;20500;-80
2021/01/01 07:01:53;;;;;;;36.88;23.00;;;;;;;6.57;63.79;94446.84;4202606;28;20082;-79
2021/01/01 07:03:55;;;;;;;38.05;23.45;;;;;;;6.36;63.50;94454.84;4205241;28;20040;-79
2021/01/01 07:06:17;;;;;;;37.05;22.23;;;;;;;6.12;64.03;94447.47;4194205;28;20153;-78
2021/01/01 07:10:41;;;;;;;32.70;19.23;;;;;;;6.17;63.71;94460.06;4194738;28;20411;-69
2021/01/01 07:12:43;;;;;;;30.65;19.33;;;;;;;5.95;64.58;94461.97;4194749;28;20491;-70
2021/01/01 07:14:44;;;;;;;31.67;18.45;;;;;;;5.97;64.31;94468.84;4194291;28;20044;-69
2021/01/01 07:16:46;;;;;;;31.27;18.83;;;;;;;6.10;64.66;94466.78;4192966;28;20052;-72
2021/01/01 07:18:48;;;;;;;31.27;18.63;;;;;;;6.14;63.37;94463.75;4187944;28;20052;-69
2021/01/01 07:20:50;;;;;;;29.73;19.08;;;;;;;6.22;63.83;94462.28;4194324;28;20048;-69
2021/01/01 07:22:56;;;;;;;30.73;20.25;;;;;;;6.30;63.61;94464.97;4192317;28;20056;-69
2021/01/01 07:24:57;;;;;;;35.88;20.80;;;;;;;6.39;62.60;94458.97;4192625;28;20087;-69
2021/01/01 07:26:58;;;;;;;34.30;20.52;;;;;;;6.47;62.74;94466.06;4192300;28;20049;-70
2021/01/01 07:29:01;;;;;;;33.90;21.33;;;;;;;6.43;62.84;94465.53;4193400;28;20056;-71
2021/01/01 07:31:03;;;;;;;34.22;20.50;;;;;;;6.39;62.54;94471.97;4195284;28;20056;-69
2021/01/01 07:33:05;;;;;;;32.55;20.80;;;;;;;6.43;62.03;94475.09;4192138;28;20052;-69
2021/01/01 07:35:09;;;;;;;33.38;22.17;;;;;;;6.42;62.33;94474.28;4191580;28;20049;-69
2021/01/01 07:37:10;;;;;;;37.70;21.10;;;;;;;6.52;62.50;94477.69;4191908;28;20502;-69
2021/01/01 07:39:11;;;;;;;34.33;21.90;;;;;;;6.70;62.08;94479.56;4195224;28;20064;-70
2021/01/01 07:41:14;;;;;;;34.13;20.50;;;;;;;6.87;61.48;94484.06;4189481;28;20068;-68
2021/01/01 07:43:15;;;;;;;32.80;22.13;;;;;;;6.95;60.62;94475.53;4186821;28;20056;-69
2021/01/01 07:45:17;;;;;;;32.60;20.90;;;;;;;7.04;60.23;94484.28;4188199;28;20054;-68
2021/01/01 07:47:18;;;;;;;31.05;20.80;;;;;;;7.01;60.53;94485.38;4194693;28;20080;-69
2021/01/01 07:49:20;;;;;;;26.17;17.65;;;;;;;6.97;59.93;94487.44;4192883;28;20053;-68
2021/01/01 07:51:21;;;;;;;30.23;17.45;;;;;;;7.09;60.07;94484.66;4187562;28;20045;-82
2021/01/01 07:53:22;;;;;;;26.48;16.95;;;;;;;7.18;59.09;94489.00;4194455;28;20048;-79
2021/01/01 07:55:24;;;;;;;26.70;17.25;;;;;;;7.12;58.67;94493.03;4194444;28;20056;-79
2021/01/01 07:57:25;;;;;;;24.33;15.65;;;;;;;7.08;59.55;94489.06;4190897;28;20049;-79
2021/01/01 07:59:26;;;;;;;27.92;15.90;;;;;;;6.83;59.46;94494.91;4192795;28;20063;-82
2021/01/01 08:01:30;;;;;;;32.42;17.52;;;;;;;6.93;60.04;94504.31;4195355;28;20513;-82
2021/01/01 08:03:32;;;;;;;31.73;16.95;;;;;;;6.86;59.53;94500.66;4196363;28;20191;-82
2021/01/01 08:05:36;;;;;;;31.75;18.98;;;;;;;6.65;59.85;94505.22;4190139;28;20124;-81
2021/01/01 08:07:37;;;;;;;36.15;23.58;;;;;;;6.84;59.98;94509.53;4177619;28;20533;-85
2021/01/01 08:09:44;;;;;;;33.33;21.48;;;;;;;7.07;58.98;94508.25;4189551;28;20048;-82
2021/01/01 08:11:46;;;;;;;42.47;23.42;;;;;;;7.02;58.39;94501.84;4191193;28;20044;-83
2021/01/01 08:13:47;;;;;;;30.60;18.73;;;;;;;7.14;58.72;94511.94;4195025;28;20049;-81
2021/01/01 08:15:49;;;;;;;28.35;17.98;;;;;;;7.30;57.97;94516.53;4188368;28;20052;-81
2021/01/01 08:17:51;;;;;;;32.55;16.95;;;;;;;7.46;57.76;94513.28;4195297;28;20048;-81
2021/01/01 08:19:52;;;;;;;27.70;17.73;;;;;;;7.71;56.93;94514.41;4196410;28;20375;-80
2021/01/01 08:22:04;;;;;;;30.85;17.23;;;;;;;7.85;56.32;94509.66;4195135;28;20056;-80
2021/01/01 08:24:22;;;;;;;26.83;16.92;;;;;;;7.92;55.77;94515.94;4193783;28;20488;-83
2021/01/01 08:26:25;;;;;;;25.85;16.45;;;;;;;8.08;54.90;94516.09;4188994;28;20446;-83
2021/01/01 08:28:28;;;;;;;26.50;16.70;;;;;;;8.07;54.31;94509.25;4193224;28;20406;-81
2021/01/01 08:30:29;;;;;;;29.60;15.90;;;;;;;8.13;54.75;94513.03;4194021;28;20278;-79
2021/01/01 08:32:31;;;;;;;27.13;15.57;;;;;;;8.21;55.06;94513.94;4195931;28;20048;-82
2021/01/01 08:34:32;;;;;;;23.55;15.88;;;;;;;8.31;54.82;94511.25;4194866;28;20118;-81
2021/01/01 08:36:34;;;;;;;24.25;16.17;;;;;;;8.44;54.91;94512.72;4203401;28;20122;-80
2021/01/01 08:38:37;;;;;;;26.45;16.60;;;;;;;8.49;54.60;94513.88;4196934;28;20444;-83
2021/01/01 08:40:41;;;;;;;27.00;16.75;;;;;;;8.56;54.88;94516.69;4196283;28;20179;-84
2021/01/01 08:42:42;;;;;;;27.17;17.60;;;;;;;8.51;54.95;94521.56;4178715;28;20049;-80
2021/01/01 08:44:44;;;;;;;25.15;16.02;;;;;;;8.58;55.18;94531.28;4194898;28;20055;-83
2021/01/01 08:46:46;;;;;;;23.85;16.17;;;;;;;8.64;54.63;94526.41;4195427;28;20044;-81
2021/01/01 08:48:47;;;;;;;24.92;15.73;;;;;;;8.68;55.04;94528.56;4195772;28;20109;-79
2021/01/01 08:50:52;;;;;;;28.27;16.13;;;;;;;8.77;54.75;94524.22;4196208;28;20127;-83
2021/01/01 08:52:58;;;;;;;24.02;14.82;;;;;;;8.78;54.71;94518.03;4187494;28;20057;-81
2021/01/01 08:55:00;;;;;;;23.10;14.45;;;;;;;8.74;54.15;94519.31;4196224;28;20627;-83
2021/01/01 08:57:02;;;;;;;23.17;15.18;;;;;;;8.29;55.69;94522.81;4175804;28;20535;-80
2021/01/01 08:59:08;;;;;;;23.92;14.68;;;;;;;7.60;57.43;94525.03;4195160;28;20052;-80
2021/01/01 09:01:17;;;;;;;23.13;16.50;;;;;;;7.37;58.26;94532.41;4182544;28;20076;-83
2021/01/01 09:03:21;;;;;;;22.20;15.43;;;;;;;7.32;58.95;94529.41;4195921;28;20072;-80
2021/01/01 09:05:24;;;;;;;24.08;15.20;;;;;;;7.08;59.03;94528.13;4196026;28;20048;-82
2021/01/01 09:07:26;;;;;;;25.55;14.68;;;;;;;7.02;59.22;94530.47;4195433;28;20407;-85
2021/01/01 09:09:31;;;;;;;24.15;16.40;;;;;;;7.22;59.18;94539.88;4185029;28;20519;-81
2021/01/01 09:11:33;;;;;;;21.00;12.90;;;;;;;7.39;58.17;94528.69;4194271;28;20056;-70
2021/01/01 09:13:34;;;;;;;19.13;12.03;;;;;;;7.04;58.92;94531.16;4192926;28;20045;-72
2021/01/01 09:15:35;;;;;;;19.20;12.30;;;;;;;7.18;58.44;94531.53;4183050;28;20302;-69
2021/01/01 09:17:37;;;;;;;20.67;11.38;;;;;;;7.05;58.76;94532.78;4192706;28;20052;-69
2021/01/01 09:19:38;;;;;;;17.48;10.65;;;;;;;6.85;58.87;94532.84;4189631;28;20048;-69
2021/01/01 09:21:39;;;;;;;20.25;11.55;;;;;;;6.50;59.97;94531.66;4173096;28;20049;-70
2021/01/01 09:23:42;;;;;;;17.33;11.38;;;;;;;6.37;60.29;94536.34;4169381;28;20049;-69
2021/01/01 09:25:43;;;;;;;20.60;11.68;;;;;;;6.15;61.04;94540.84;4188482;28;20128;-71
2021/01/01 09:27:46;;;;;;;24.17;12.50;;;;;;;6.17;61.30;94548.50;4188442;28;20049;-69
2021/01/01 09:29:47;;;;;;;19.05;11.05;;;;;;;6.37;60.22;94538.94;4191140;28;20084;-71
2021/01/01 09:31:48;;;;;;;25.83;11.48;;;;;;;6.17;61.16;94532.88;4192136;28;20355;-72
2021/01/01 09:34:00;;;;;;;18.92;11.18;;;;;;;6.62;60.14;94534.94;4202079;28;20101;-70